createdAt,value
2023-04-18T00:01:46.780Z,8.80
2023-04-18T00:04:35.489Z,8.37
2023-04-18T00:07:23.626Z,8.77
2023-04-18T00:10:12.129Z,8.77
2023-04-18T00:13:00.629Z,8.70
2023-04-18T00:15:50.281Z,9.10
2023-04-18T00:18:39.866Z,9.13
2023-04-18T00:21:28.001Z,9.20
2023-04-18T00:24:16.690Z,8.60
2023-04-18T00:27:05.067Z,9.13
2023-04-18T00:29:53.272Z,8.77
2023-04-18T00:32:42.720Z,8.37
2023-04-18T00:35:31.999Z,8.57
2023-04-18T00:38:20.039Z,8.63
2023-04-18T00:41:08.106Z,8.57
2023-04-18T00:43:56.175Z,8.70
2023-04-18T00:46:44.269Z,9.17
2023-04-18T00:49:34.020Z,8.53
2023-04-18T00:52:22.416Z,8.50
2023-04-18T00:55:11.484Z,8.30
2023-04-18T00:57:59.753Z,8.33
2023-04-18T01:00:48.079Z,8.40
2023-04-18T01:03:37.531Z,8.10
2023-04-18T01:06:27.687Z,8.57
2023-04-18T01:09:15.978Z,8.77
2023-04-18T01:12:04.424Z,8.13
2023-04-18T01:14:52.635Z,8.67
2023-04-18T01:17:40.998Z,8.00
2023-04-18T01:20:29.584Z,7.83
2023-04-18T01:23:20.364Z,9.37
2023-04-18T01:26:09.984Z,8.77
2023-04-18T01:28:58.017Z,8.13
2023-04-18T01:31:46.363Z,8.77
2023-04-18T01:34:34.523Z,8.53
2023-04-18T01:37:22.567Z,8.23
2023-04-18T01:40:11.756Z,8.33
2023-04-18T01:43:01.398Z,8.00
2023-04-18T01:45:49.456Z,7.83
2023-04-18T01:48:37.781Z,8.37
2023-04-18T01:51:26.393Z,8.40
2023-04-18T01:54:15.217Z,8.50
2023-04-18T01:57:03.608Z,8.40
2023-04-18T01:59:53.248Z,8.47
2023-04-18T02:02:41.452Z,8.77
2023-04-18T02:05:29.753Z,8.63
2023-04-18T02:08:17.847Z,8.87
2023-04-18T02:11:06.386Z,8.60
2023-04-18T02:13:54.558Z,8.50
2023-04-18T02:16:44.124Z,8.13
2023-04-18T02:19:32.280Z,8.33
2023-04-18T02:22:20.876Z,7.83
2023-04-18T02:25:09.704Z,7.80
2023-04-18T02:27:58.690Z,8.00
2023-04-18T02:30:46.814Z,8.20
2023-04-18T02:33:36.682Z,8.13
2023-04-18T02:36:26.167Z,8.63
2023-04-18T02:39:14.538Z,7.87
2023-04-18T02:42:02.700Z,8.27
2023-04-18T02:44:50.662Z,8.17
2023-04-18T02:47:51.321Z,7.80
2023-04-18T02:50:44.478Z,7.60
2023-04-18T02:53:32.535Z,7.87
2023-04-18T02:56:20.652Z,8.10
2023-04-18T02:59:09.011Z,8.73
2023-04-18T03:01:57.129Z,8.00
2023-04-18T03:04:45.362Z,7.73
2023-04-18T03:07:34.853Z,8.13
2023-04-18T03:10:23.090Z,7.97
2023-04-18T03:13:11.125Z,8.07
2023-04-18T03:15:59.266Z,7.50
2023-04-18T03:18:47.448Z,8.00
2023-04-18T03:21:35.628Z,7.83
2023-04-18T03:24:25.066Z,7.10
2023-04-18T03:27:14.598Z,7.57
2023-04-18T03:30:02.810Z,7.63
2023-04-18T03:32:52.984Z,8.00
2023-04-18T03:35:41.708Z,7.90
2023-04-18T03:38:29.909Z,7.80
2023-04-18T03:41:19.484Z,7.37
2023-04-18T03:44:07.643Z,8.13
2023-04-18T03:46:57.321Z,7.67
2023-04-18T03:49:45.581Z,7.67
2023-04-18T03:52:33.696Z,7.73
2023-04-18T03:55:22.243Z,7.53
2023-04-18T03:58:11.826Z,8.57
2023-04-18T04:01:01.177Z,8.47
2023-04-18T04:03:49.311Z,8.20
2023-04-18T04:06:37.606Z,7.77
2023-04-18T04:09:25.658Z,8.37
2023-04-18T04:12:13.716Z,7.77
2023-04-18T04:15:03.362Z,8.07
2023-04-18T04:17:51.782Z,8.47
2023-04-18T04:20:40.063Z,8.03
2023-04-18T04:23:28.812Z,8.27
2023-04-18T04:26:16.978Z,8.37
2023-04-18T04:29:05.153Z,8.07
2023-04-18T04:31:54.681Z,7.53
2023-04-18T04:34:42.954Z,8.33
2023-04-18T04:37:30.994Z,7.87
2023-04-18T04:40:19.285Z,8.33
2023-04-18T04:43:07.417Z,7.60
2023-04-18T04:45:55.845Z,7.13
2023-04-18T04:48:45.444Z,7.30
2023-04-18T04:51:33.458Z,8.23
2023-04-18T04:54:21.567Z,7.70
2023-04-18T04:57:09.872Z,8.17
2023-04-18T04:59:57.914Z,7.67
2023-04-18T05:02:46.445Z,7.87
2023-04-18T05:05:36.139Z,8.07
2023-04-18T05:08:24.204Z,7.83
2023-04-18T05:11:12.362Z,7.73
2023-04-18T05:14:00.682Z,7.73
2023-04-18T05:16:48.805Z,7.87
2023-04-18T05:19:36.926Z,8.50
2023-04-18T05:22:26.635Z,8.37
2023-04-18T05:25:14.725Z,8.00
2023-04-18T05:28:04.576Z,8.20
2023-04-18T05:30:52.839Z,8.10
2023-04-18T05:33:41.061Z,8.10
2023-04-18T05:36:29.096Z,7.80
2023-04-18T05:39:18.600Z,7.63
2023-04-18T05:42:06.751Z,7.90
2023-04-18T05:44:54.778Z,7.73
2023-04-18T05:47:42.914Z,7.87
2023-04-18T05:50:31.378Z,7.73
2023-04-18T05:53:19.433Z,7.80
2023-04-18T05:56:09.297Z,7.60
2023-04-18T05:58:57.420Z,7.97
2023-04-18T06:01:45.520Z,7.97
2023-04-18T06:04:33.741Z,7.93
2023-04-18T06:07:25.122Z,8.40
2023-04-18T06:10:13.696Z,8.77
2023-04-18T06:13:03.414Z,8.60
2023-04-18T06:15:51.780Z,8.20
2023-04-18T06:18:40.143Z,8.03
2023-04-18T06:21:28.849Z,8.60
2023-04-18T06:24:17.202Z,8.03
2023-04-18T06:29:56.771Z,8.00
2023-04-18T06:32:44.874Z,7.83
2023-04-18T06:35:33.340Z,7.53
2023-04-18T06:38:21.764Z,7.93
2023-04-18T06:41:09.883Z,7.63
2023-04-18T06:44:02.876Z,8.20
2023-04-18T06:46:53.807Z,8.37
2023-04-18T06:49:42.095Z,8.30
2023-04-18T06:52:30.499Z,7.87
2023-04-18T06:55:18.804Z,7.53
2023-04-18T06:58:08.453Z,7.73
2023-04-18T07:00:56.582Z,7.60
2023-04-18T07:03:46.438Z,7.73
2023-04-18T07:06:36.233Z,7.50
2023-04-18T07:09:24.289Z,7.83
2023-04-18T07:12:12.307Z,7.60
2023-04-18T07:15:00.525Z,7.43
2023-04-18T07:17:48.961Z,6.93
2023-04-18T07:20:38.414Z,7.43
2023-04-18T07:23:26.475Z,7.33
2023-04-18T07:26:14.754Z,7.47
2023-04-18T07:29:03.366Z,7.40
2023-04-18T07:31:52.052Z,7.50
2023-04-18T07:34:40.234Z,7.50
2023-04-18T07:37:29.962Z,7.30
2023-04-18T07:40:18.395Z,6.40
2023-04-18T07:43:06.687Z,6.87
2023-04-18T07:45:54.999Z,7.10
2023-04-18T07:48:43.202Z,6.87
2023-04-18T07:51:32.399Z,6.80
2023-04-18T07:54:21.816Z,6.63
2023-04-18T07:57:10.845Z,7.57
2023-04-18T07:59:58.899Z,7.40
2023-04-18T08:02:47.401Z,7.33
2023-04-18T08:05:35.832Z,7.67
2023-04-18T08:08:24.169Z,7.30
2023-04-18T08:11:13.638Z,8.20
2023-04-18T08:14:02.268Z,6.90
2023-04-18T08:16:50.332Z,7.23
2023-04-18T08:19:38.516Z,6.90
2023-04-18T08:22:26.663Z,7.33
2023-04-18T08:25:14.724Z,7.23
2023-04-18T08:28:04.415Z,7.27
2023-04-18T08:30:54.204Z,7.33
2023-04-18T08:33:42.335Z,7.07
2023-04-18T08:36:31.640Z,7.40
2023-04-18T08:39:19.729Z,7.37
2023-04-18T08:42:08.532Z,7.60
2023-04-18T08:44:59.689Z,7.57
2023-04-18T08:47:48.181Z,7.33
2023-04-18T08:50:36.276Z,7.80
2023-04-18T08:53:24.506Z,8.00
2023-04-18T08:56:14.770Z,8.07
2023-04-18T08:59:03.332Z,8.00
2023-04-18T09:01:56.618Z,8.47
2023-04-18T09:04:49.011Z,9.03
2023-04-18T09:07:37.091Z,8.93
2023-04-18T09:10:30.928Z,9.20
2023-04-18T09:13:39.787Z,9.40
2023-04-18T09:16:29.274Z,10.10
2023-04-18T09:19:19.099Z,10.47
2023-04-18T09:22:08.378Z,10.20
2023-04-18T09:24:58.306Z,10.73
2023-04-18T09:27:47.292Z,10.93
2023-04-18T09:30:40.394Z,10.90
2023-04-18T09:33:32.619Z,10.53
2023-04-18T09:36:23.589Z,10.90
2023-04-18T09:39:27.444Z,10.03
2023-04-18T09:42:15.744Z,11.17
2023-04-18T09:45:06.197Z,11.17
2023-04-18T09:47:55.963Z,11.23
2023-04-18T09:50:45.962Z,11.20
2023-04-18T09:53:39.466Z,11.37
2023-04-18T09:56:31.975Z,11.27
2023-04-18T09:59:30.531Z,10.93
2023-04-18T10:02:22.957Z,11.67
2023-04-18T10:05:11.501Z,10.87
2023-04-18T10:07:59.983Z,11.67
2023-04-18T10:10:49.446Z,11.03
2023-04-18T10:13:39.315Z,11.00
2023-04-18T10:16:28.687Z,10.80
2023-04-18T10:19:24.800Z,11.33
2023-04-18T10:22:13.426Z,11.07
2023-04-18T10:25:01.696Z,11.33
2023-04-18T10:27:59.714Z,11.60
2023-04-18T10:31:07.859Z,11.17
2023-04-18T10:37:13.941Z,11.30
2023-04-18T10:40:06.616Z,10.33
2023-04-18T10:43:02.699Z,10.70
2023-04-18T10:46:27.887Z,11.50
2023-04-18T10:49:21.941Z,11.10
2023-04-18T10:55:10.643Z,10.83
2023-04-18T10:57:59.530Z,11.40
2023-04-18T11:00:52.581Z,10.40
2023-04-18T11:03:41.139Z,10.27
2023-04-18T11:06:30.497Z,10.00
2023-04-18T11:09:18.781Z,10.43
2023-04-18T11:12:09.183Z,9.87
2023-04-18T11:14:57.839Z,10.17
2023-04-18T11:17:47.381Z,10.63
2023-04-18T11:20:40.025Z,10.60
2023-04-18T11:23:28.907Z,10.60
2023-04-18T11:26:19.706Z,10.03
2023-04-18T11:29:07.797Z,10.20
2023-04-18T11:31:58.606Z,10.27
2023-04-18T11:34:48.594Z,10.00
2023-04-18T11:37:37.657Z,10.07
2023-04-18T11:40:26.050Z,9.70
2023-04-18T11:43:21.641Z,9.30
2023-04-18T11:46:10.161Z,9.80
2023-04-18T11:48:58.204Z,8.70
2023-04-18T11:51:48.041Z,8.90
2023-04-18T11:54:40.564Z,8.67
2023-04-18T11:57:30.953Z,8.67
2023-04-18T12:00:21.383Z,8.63
2023-04-18T12:03:17.116Z,9.30
2023-04-18T12:06:05.853Z,8.20
2023-04-18T12:09:01.141Z,8.93
2023-04-18T12:11:59.168Z,9.77
2023-04-18T12:14:47.444Z,8.00
2023-04-18T12:17:37.423Z,8.17
2023-04-18T12:20:25.740Z,7.97
2023-04-18T12:23:35.578Z,7.60
2023-04-18T12:26:26.931Z,8.13
2023-04-18T12:29:15.870Z,7.73
2023-04-18T12:32:04.225Z,7.70
2023-04-18T12:34:52.600Z,7.93
2023-04-18T12:37:41.070Z,7.90
2023-04-18T12:40:30.882Z,7.23
2023-04-18T12:43:21.010Z,8.03
2023-04-18T12:46:09.053Z,7.67
2023-04-18T12:48:57.745Z,7.10
2023-04-18T12:51:45.832Z,7.60
2023-04-18T12:54:36.152Z,7.63
2023-04-18T12:57:26.289Z,7.80
2023-04-18T13:00:16.313Z,7.10
2023-04-18T13:03:04.931Z,7.43
2023-04-18T13:05:54.642Z,7.90
2023-04-18T13:08:43.165Z,7.97
2023-04-18T13:11:31.571Z,7.57
2023-04-18T13:14:19.842Z,7.40
2023-04-18T13:17:09.697Z,7.23
2023-04-18T13:19:57.936Z,7.20
2023-04-18T13:22:46.703Z,6.50
2023-04-18T13:25:34.749Z,7.40
2023-04-18T13:28:22.986Z,7.60
2023-04-18T13:31:11.081Z,8.00
2023-04-18T13:34:00.664Z,8.20
2023-04-18T13:36:48.823Z,8.30
2023-04-18T13:39:37.335Z,8.80
2023-04-18T13:42:25.701Z,9.00
2023-04-18T13:45:13.881Z,9.97
2023-04-18T13:48:02.227Z,10.40
2023-04-18T13:50:51.928Z,10.07
2023-04-18T13:53:40.413Z,9.97
2023-04-18T13:56:29.141Z,10.80
2023-04-18T13:59:17.457Z,10.63
2023-04-18T14:02:05.565Z,10.07
2023-04-18T14:04:54.927Z,10.40
2023-04-18T14:07:44.635Z,10.17
2023-04-18T14:10:32.871Z,10.87
2023-04-18T14:13:21.197Z,10.20
2023-04-18T14:16:09.634Z,10.53
2023-04-18T14:18:58.068Z,10.10
2023-04-18T14:21:47.388Z,9.90
2023-04-18T14:24:37.580Z,9.20
2023-04-18T14:27:26.263Z,9.20
2023-04-18T14:30:16.212Z,9.50
2023-04-18T14:33:04.923Z,9.30
2023-04-18T14:35:53.870Z,9.50
2023-04-18T14:38:42.497Z,9.13
2023-04-18T14:41:31.968Z,10.13
2023-04-18T14:44:20.655Z,10.00
2023-04-18T14:47:08.873Z,9.40
2023-04-18T14:49:56.949Z,9.40
2023-04-18T14:52:46.173Z,9.00
2023-04-18T14:55:34.904Z,8.80
2023-04-18T14:58:24.544Z,9.57
2023-04-18T15:01:12.958Z,8.83
2023-04-18T15:04:03.593Z,8.37
2023-04-18T15:06:51.863Z,9.10
2023-04-18T15:09:40.193Z,8.90
2023-04-18T15:12:28.330Z,8.43
2023-04-18T15:15:18.846Z,8.27
2023-04-18T15:18:08.256Z,7.60
2023-04-18T15:20:57.180Z,7.73
2023-04-18T15:23:45.365Z,8.20
2023-04-18T15:26:33.609Z,7.77
2023-04-18T15:29:21.823Z,7.23
2023-04-18T15:32:12.756Z,7.57
2023-04-18T15:35:01.000Z,8.43
2023-04-18T15:37:49.320Z,9.33
2023-04-18T15:40:37.518Z,7.23
2023-04-18T15:43:25.636Z,7.50
2023-04-18T15:46:13.936Z,8.50
2023-04-18T15:49:03.481Z,7.83
2023-04-18T15:51:51.810Z,8.13
2023-04-18T15:54:42.800Z,8.43
2023-04-18T15:57:31.228Z,7.77
2023-04-18T16:00:20.212Z,8.13
2023-04-18T16:03:10.019Z,7.50
2023-04-18T16:05:59.575Z,7.53
2023-04-18T16:08:47.806Z,8.13
2023-04-18T16:11:36.163Z,8.07
2023-04-18T16:14:24.299Z,8.10
2023-04-18T16:17:12.455Z,8.00
2023-04-18T16:20:00.708Z,7.73
2023-04-18T16:22:50.591Z,8.07
2023-04-18T16:25:38.647Z,7.20
2023-04-18T16:28:26.925Z,8.30
2023-04-18T16:31:16.237Z,8.43
2023-04-18T16:34:04.637Z,8.37
2023-04-18T16:36:54.517Z,8.27
2023-04-18T16:39:45.169Z,8.53
2023-04-18T16:42:33.592Z,9.77
2023-04-18T16:45:21.936Z,8.93
2023-04-18T16:48:10.177Z,9.03
2023-04-18T16:50:58.944Z,9.90
2023-04-18T16:53:47.034Z,8.53
2023-04-18T16:56:36.615Z,8.93
2023-04-18T16:59:24.946Z,8.10
2023-04-18T17:02:13.246Z,8.63
2023-04-18T17:05:01.758Z,8.70
2023-04-18T17:07:51.779Z,9.60
2023-04-18T17:10:40.144Z,8.80
2023-04-18T17:13:31.779Z,9.23
2023-04-18T17:16:20.126Z,9.10
2023-04-18T17:19:08.609Z,9.27
2023-04-18T17:21:56.861Z,9.53
2023-04-18T17:24:44.985Z,9.30
2023-04-18T17:27:33.413Z,8.77
2023-04-18T17:30:23.121Z,8.17
2023-04-18T17:33:11.579Z,8.60
2023-04-18T17:35:59.915Z,8.30
2023-04-18T17:38:49.834Z,8.47
2023-04-18T17:41:39.299Z,8.77
2023-04-18T17:44:27.489Z,8.67
2023-04-18T17:47:17.016Z,8.27
2023-04-18T17:50:05.470Z,9.40
2023-04-18T17:52:53.557Z,8.13
2023-04-18T17:55:41.802Z,9.47
2023-04-18T17:58:30.284Z,9.57
2023-04-18T18:01:19.873Z,8.93
2023-04-18T18:04:10.101Z,9.50
2023-04-18T18:06:59.060Z,9.43
2023-04-18T18:09:47.239Z,8.73
2023-04-18T18:12:36.324Z,8.67
2023-04-18T18:15:25.241Z,8.90
2023-04-18T18:18:13.492Z,9.47
2023-04-18T18:21:03.393Z,7.83
2023-04-18T18:23:51.579Z,8.43
2023-04-18T18:26:39.699Z,8.10
2023-04-18T18:29:28.057Z,8.33
2023-04-18T18:32:16.208Z,8.00
2023-04-18T18:35:05.847Z,8.43
2023-04-18T18:37:55.529Z,8.00
2023-04-18T18:40:43.593Z,8.03
2023-04-18T18:43:31.701Z,8.27
2023-04-18T18:46:20.601Z,7.93
2023-04-18T18:49:09.215Z,8.20
2023-04-18T18:51:58.093Z,8.03
2023-04-18T18:54:47.502Z,8.17
2023-04-18T18:57:35.831Z,8.40
2023-04-18T19:00:24.012Z,7.83
2023-04-18T19:03:12.736Z,7.83
2023-04-18T19:06:03.937Z,7.70
2023-04-18T19:08:52.078Z,7.80
2023-04-18T19:11:41.436Z,8.00
2023-04-18T19:14:29.601Z,8.10
2023-04-18T19:17:19.264Z,7.80
2023-04-18T19:20:09.078Z,7.67
2023-04-18T19:22:57.393Z,8.27
2023-04-18T19:25:45.440Z,8.60
2023-04-18T19:28:34.999Z,8.47
2023-04-18T19:31:23.622Z,8.43
2023-04-18T19:34:13.548Z,7.87
2023-04-18T19:37:01.729Z,8.27
2023-04-18T19:39:50.294Z,8.67
2023-04-18T19:42:38.294Z,8.40
2023-04-18T19:45:27.783Z,8.70
2023-04-18T19:48:16.090Z,9.20
2023-04-18T19:51:04.828Z,8.53
2023-04-18T19:53:55.621Z,8.53
2023-04-18T19:56:46.528Z,8.53
2023-04-18T19:59:36.633Z,7.63
2023-04-18T20:02:27.903Z,8.13
2023-04-18T20:05:19.146Z,8.90
2023-04-18T20:08:08.714Z,8.77
2023-04-18T20:10:57.709Z,8.90
2023-04-18T20:13:46.632Z,8.97
2023-04-18T20:16:36.682Z,8.87
2023-04-18T20:19:27.248Z,9.40
2023-04-18T20:22:17.231Z,8.60
2023-04-18T20:25:06.824Z,9.83
2023-04-18T20:27:56.887Z,8.77
2023-04-18T20:30:45.932Z,9.10
2023-04-18T20:33:36.344Z,9.47
2023-04-18T20:36:26.614Z,8.90
2023-04-18T20:39:16.729Z,9.33
2023-04-18T20:42:06.411Z,8.53
2023-04-18T20:44:55.408Z,9.50
2023-04-18T20:47:45.761Z,8.70
2023-04-18T20:50:35.018Z,9.67
2023-04-18T20:53:27.253Z,10.13
2023-04-18T20:56:17.166Z,9.73
2023-04-18T20:59:06.449Z,9.33
2023-04-18T21:01:55.329Z,9.80
2023-04-18T21:04:44.387Z,9.97
2023-04-18T21:07:34.502Z,9.50
2023-04-18T21:10:25.015Z,10.00
2023-04-18T21:13:14.419Z,10.13
2023-04-18T21:16:03.785Z,9.53
2023-04-18T21:18:52.473Z,10.07
2023-04-18T21:21:41.282Z,9.70
2023-04-18T21:24:30.638Z,10.60
2023-04-18T21:27:21.342Z,9.83
2023-04-18T21:30:10.660Z,11.13
2023-04-18T21:32:59.557Z,9.73
2023-04-18T21:35:48.189Z,9.93
2023-04-18T21:38:36.670Z,10.30
2023-04-18T21:41:26.213Z,10.50
2023-04-18T21:44:19.487Z,9.90
2023-04-18T21:47:08.307Z,10.33
2023-04-18T21:49:57.137Z,10.00
2023-04-18T21:52:46.778Z,10.17
2023-04-18T21:55:36.165Z,10.33
2023-04-18T21:58:26.210Z,10.87
2023-04-18T22:01:17.015Z,10.80
2023-04-18T22:04:06.464Z,11.10
2023-04-18T22:06:58.298Z,10.10
2023-04-18T22:09:48.186Z,10.97
2023-04-18T22:12:38.068Z,10.97
2023-04-18T22:15:27.310Z,10.67
2023-04-18T22:18:18.774Z,10.77
2023-04-18T22:21:09.865Z,11.10
2023-04-18T22:23:59.279Z,11.73
2023-04-18T22:26:51.588Z,10.93
2023-04-18T22:29:40.478Z,10.57
2023-04-18T22:32:31.089Z,11.03
2023-04-18T22:35:23.688Z,12.50
2023-04-18T22:38:12.217Z,11.20
2023-04-18T22:41:02.438Z,12.03
2023-04-18T22:43:53.164Z,12.03
2023-04-18T22:46:45.323Z,11.90
2023-04-18T22:49:35.446Z,12.30
2023-04-18T22:52:27.514Z,12.43
2023-04-18T22:55:21.094Z,12.57
2023-04-18T22:58:13.575Z,11.90
2023-04-18T23:01:03.230Z,12.40
2023-04-18T23:03:55.677Z,11.93
2023-04-18T23:06:45.167Z,12.70
2023-04-18T23:09:40.689Z,12.83
2023-04-18T23:12:34.043Z,13.13
2023-04-18T23:15:25.339Z,13.43
2023-04-18T23:18:14.706Z,13.37
2023-04-18T23:21:05.096Z,12.87
2023-04-18T23:23:55.026Z,12.83
2023-04-18T23:26:47.516Z,12.80
2023-04-18T23:29:40.200Z,13.83
2023-04-18T23:32:30.011Z,14.23
2023-04-18T23:35:20.040Z,13.93
2023-04-18T23:38:10.358Z,13.23
2023-04-18T23:40:59.942Z,13.47
2023-04-18T23:43:50.348Z,14.00
2023-04-18T23:46:39.878Z,14.57
2023-04-18T23:49:28.776Z,13.80
2023-04-18T23:52:17.639Z,14.27
2023-04-18T23:55:06.647Z,15.10
2023-04-18T23:57:55.727Z,13.43
